Terminal Aerodrome Forecast
Issued by NWS

Home | Current Version | Previous Version | Graphics & Text | Print | Product List | Glossary On
Versions: 1 2 3 4 5 6 7 8 9 10 11 12 13 14 15 16 17 18 19 20 21 22 23 24
000
FTUS42 KMHX 241800 AAA
TAFOAJ
TAF AMD
KOAJ 241859Z 2419/2518 20010G15KT P6SM VCSH BKN010 OVC020
     FM250000 20005KT 5SM BR OVC010
     FM250800 24003KT 3SM BR OVC010
     FM251300 26007KT P6SM VCSH OVC020
     FM251700 33010KT P6SM VCSH OVC010
      AMD LTD TO CLD VIS AND WIND=

USA.gov is the U.S. government's official web portal to all federal, state and local government web resources and services.